Time;durP1;ratioP1;P1;durP2;ratioP2;P2;SDS_P1;SDS_P2;PMS_P1;PMS_P2;Temp;Humidity;BMP_temperature;BMP_pressure;BME280_temperature;BME280_humidity;BME280_pressure;Samples;Min_cycle;Max_cycle;Signal;HPM_P1;HPM_P2
2022/04/12 00:02:06;;;;;;;3.20;1.60;;;20.70;37.80;;;;;;5040153;28;89704;-70
2022/04/12 00:04:34;;;;;;;3.17;1.30;;;20.70;37.80;;;;;;5040476;28;90078;-70
2022/04/12 00:07:03;;;;;;;5.50;1.33;;;20.70;37.90;;;;;;5040084;27;90076;-70
2022/04/12 00:09:31;;;;;;;2.00;1.40;;;20.70;37.90;;;;;;5040861;28;90576;-71
2022/04/12 00:11:59;;;;;;;2.97;1.70;;;20.70;37.90;;;;;;5039996;28;90050;-70
2022/04/12 00:14:27;;;;;;;3.63;1.57;;;20.70;37.90;;;;;;5040702;28;88516;-70
2022/04/12 00:19:38;;;;;;;2.47;1.80;;;20.70;38.00;;;;;;5039343;27;89710;-69
2022/04/12 00:22:06;;;;;;;1.67;1.03;;;20.70;38.00;;;;;;5039726;28;92889;-69
2022/04/12 00:24:34;;;;;;;3.17;1.73;;;20.70;38.00;;;;;;5040368;28;88863;-71
2022/04/12 00:27:02;;;;;;;1.60;1.37;;;20.70;38.10;;;;;;5039935;28;88791;-69
2022/04/12 00:29:32;;;;;;;2.73;1.37;;;20.70;38.10;;;;;;5039589;28;92364;-70
2022/04/12 00:32:01;;;;;;;3.03;1.37;;;20.70;38.20;;;;;;5038810;27;88844;-69
2022/04/12 00:34:29;;;;;;;2.10;1.50;;;20.70;38.20;;;;;;5040723;28;91102;-70
2022/04/12 00:36:57;;;;;;;2.63;1.50;;;20.70;38.20;;;;;;5039517;28;89654;-70
2022/04/12 00:39:25;;;;;;;2.00;1.40;;;20.70;38.20;;;;;;5040474;28;90539;-69
2022/04/12 00:41:53;;;;;;;3.77;2.47;;;20.70;38.20;;;;;;5038723;27;89008;-70
2022/04/12 00:44:21;;;;;;;2.97;2.20;;;20.70;38.20;;;;;;5040071;28;88793;-70
2022/04/12 00:46:49;;;;;;;3.57;2.03;;;20.70;38.30;;;;;;5039370;27;88642;-70
2022/04/12 00:49:18;;;;;;;4.57;2.00;;;20.70;38.30;;;;;;5040108;27;92530;-70
2022/04/12 00:51:46;;;;;;;3.83;2.17;;;20.70;38.30;;;;;;5038980;28;90057;-69
2022/04/12 00:54:14;;;;;;;4.00;2.07;;;20.70;38.30;;;;;;5040309;28;88289;-70
2022/04/12 00:56:43;;;;;;;2.70;1.90;;;20.70;38.30;;;;;;5039565;27;89596;-71
2022/04/12 00:59:11;;;;;;;3.27;1.53;;;20.70;38.30;;;;;;5040289;28;90620;-71
2022/04/12 01:01:41;;;;;;;1.90;1.53;;;20.70;38.30;;;;;;5039219;28;90074;-70
2022/04/12 01:04:09;;;;;;;3.07;2.10;;;20.70;38.40;;;;;;5039948;28;88817;-70
2022/04/12 01:06:39;;;;;;;2.43;1.90;;;20.70;38.40;;;;;;5038841;27;88431;-71
2022/04/12 01:09:07;;;;;;;4.10;2.20;;;20.70;38.40;;;;;;5040173;27;90523;-70
2022/04/12 01:11:35;;;;;;;2.93;1.67;;;20.70;38.40;;;;;;5038996;28;88971;-71
2022/04/12 01:14:03;;;;;;;2.80;2.00;;;20.70;38.40;;;;;;5039839;28;88817;-71
2022/04/12 01:16:31;;;;;;;3.43;2.23;;;20.70;38.40;;;;;;5038475;27;88629;-70
2022/04/12 01:19:00;;;;;;;3.67;2.20;;;20.70;38.40;;;;;;5038824;27;90857;-71
2022/04/12 01:21:29;;;;;;;3.37;2.00;;;20.70;38.50;;;;;;5039416;28;93253;-71
2022/04/12 01:24:00;;;;;;;2.03;1.80;;;20.70;38.50;;;;;;5039529;27;88237;-70
2022/04/12 01:26:28;;;;;;;5.00;1.73;;;20.70;38.50;;;;;;5039007;28;88548;-70
2022/04/12 01:28:56;;;;;;;3.47;1.90;;;20.70;38.50;;;;;;5039279;27;90002;-70
2022/04/12 01:31:24;;;;;;;2.17;1.67;;;20.70;38.50;;;;;;5040361;28;92653;-70
2022/04/12 01:33:53;;;;;;;4.77;2.03;;;20.70;38.50;;;;;;5042512;27;90851;-70
2022/04/12 01:36:21;;;;;;;3.70;1.90;;;20.70;38.50;;;;;;5041311;27;88525;-70
2022/04/12 01:38:49;;;;;;;3.10;1.90;;;20.70;38.50;;;;;;5042547;28;90602;-69
2022/04/12 01:41:18;;;;;;;2.63;2.00;;;20.70;38.60;;;;;;5042369;27;89073;-70
2022/04/12 01:43:46;;;;;;;2.63;2.10;;;20.60;38.50;;;;;;5043372;28;90439;-69
2022/04/12 01:46:14;;;;;;;3.97;1.90;;;20.70;38.60;;;;;;5042582;28;88471;-70
2022/04/12 01:48:44;;;;;;;4.77;2.23;;;20.70;38.60;;;;;;5043312;28;90950;-69
2022/04/12 01:51:12;;;;;;;3.77;1.80;;;20.70;38.70;;;;;;5041600;27;89251;-70
2022/04/12 01:53:40;;;;;;;2.90;2.20;;;20.70;38.60;;;;;;5042839;28;88507;-70
2022/04/12 01:56:08;;;;;;;3.87;1.87;;;20.70;38.60;;;;;;5041920;27;88707;-69
2022/04/12 01:58:38;;;;;;;3.43;1.80;;;20.70;39.30;;;;;;5042208;28;92596;-70
2022/04/12 02:01:06;;;;;;;2.80;1.60;;;20.70;38.70;;;;;;5041645;27;89713;-70
2022/04/12 02:03:35;;;;;;;3.80;2.03;;;20.60;38.60;;;;;;5041939;28;88534;-69
2022/04/12 02:06:03;;;;;;;5.30;1.67;;;20.60;38.60;;;;;;5045703;27;88571;-70
2022/04/12 02:08:31;;;;;;;3.73;2.00;;;20.60;38.60;;;;;;5045372;27;90650;-69
2022/04/12 02:10:59;;;;;;;4.17;2.20;;;20.70;38.70;;;;;;5041986;28;90669;-70
2022/04/12 02:13:27;;;;;;;3.17;2.03;;;20.70;38.70;;;;;;5041590;27;88642;-70
2022/04/12 02:15:56;;;;;;;4.17;2.13;;;20.70;38.70;;;;;;5042049;28;89270;-70
2022/04/12 02:18:24;;;;;;;5.07;1.77;;;20.70;38.70;;;;;;5042466;27;92434;-70
2022/04/12 02:20:52;;;;;;;4.30;2.07;;;20.70;38.70;;;;;;5041460;28;89667;-70
2022/04/12 02:23:20;;;;;;;3.03;1.70;;;20.60;38.70;;;;;;5041884;28;88403;-70
2022/04/12 02:25:48;;;;;;;3.90;1.70;;;20.70;38.70;;;;;;5042664;28;88593;-71
2022/04/12 02:28:16;;;;;;;3.87;1.97;;;20.70;38.70;;;;;;5041784;27;88382;-70
2022/04/12 02:30:44;;;;;;;2.23;1.63;;;20.70;39.40;;;;;;5042063;28;89449;-71
2022/04/12 02:33:14;;;;;;;2.10;1.70;;;20.70;38.80;;;;;;5038132;27;90076;-71
2022/04/12 02:35:42;;;;;;;5.10;1.97;;;20.70;38.80;;;;;;5028575;28;88707;-71
2022/04/12 02:38:10;;;;;;;2.93;1.87;;;20.70;38.80;;;;;;5040939;28;90970;-71
2022/04/12 02:40:38;;;;;;;3.47;2.23;;;20.70;38.80;;;;;;5041772;27;90355;-70
2022/04/12 02:43:06;;;;;;;4.57;1.90;;;20.70;38.80;;;;;;5040784;28;89466;-71
2022/04/12 02:45:34;;;;;;;4.10;1.83;;;20.70;38.80;;;;;;5041952;28;88388;-70
2022/04/12 02:48:02;;;;;;;2.63;1.97;;;20.60;38.70;;;;;;5041919;27;89445;-70
2022/04/12 02:50:32;;;;;;;2.17;1.77;;;20.70;38.80;;;;;;5042147;28;88389;-70
2022/04/12 02:53:00;;;;;;;2.23;1.60;;;20.60;38.70;;;;;;5041233;28;88933;-70
2022/04/12 02:55:28;;;;;;;3.07;1.73;;;20.60;38.70;;;;;;5042291;28;88502;-70
2022/04/12 02:57:56;;;;;;;3.17;2.07;;;20.60;38.70;;;;;;5040765;27;89548;-70
2022/04/12 03:00:24;;;;;;;4.50;1.90;;;20.60;38.70;;;;;;5040598;27;89000;-70
2022/04/12 03:02:52;;;;;;;2.60;1.50;;;20.60;38.70;;;;;;5041291;28;89426;-71
2022/04/12 03:05:20;;;;;;;3.30;1.97;;;20.60;38.80;;;;;;5041839;28;88359;-70
2022/04/12 03:07:49;;;;;;;3.23;2.13;;;20.70;38.90;;;;;;5040467;28;90723;-71
2022/04/12 03:10:17;;;;;;;4.47;2.23;;;20.60;38.80;;;;;;5041565;28;89513;-70
2022/04/12 03:12:45;;;;;;;5.77;2.13;;;20.60;38.80;;;;;;5040698;28;88788;-69
2022/04/12 03:15:13;;;;;;;6.40;2.40;;;20.60;38.80;;;;;;5041829;28;88351;-69
2022/04/12 03:17:41;;;;;;;3.70;2.10;;;20.60;38.80;;;;;;5040909;28;90238;-70
2022/04/12 03:20:10;;;;;;;3.83;2.17;;;20.60;38.80;;;;;;5041345;28;90053;-70
2022/04/12 03:22:41;;;;;;;4.53;2.53;;;20.60;38.80;;;;;;5041070;28;89810;-69
2022/04/12 03:25:11;;;;;;;7.07;2.83;;;20.60;38.80;;;;;;5041634;28;88428;-70
2022/04/12 03:27:39;;;;;;;3.10;2.03;;;20.60;38.80;;;;;;5040867;27;89732;-70
2022/04/12 03:30:08;;;;;;;4.17;2.27;;;20.60;38.80;;;;;;5040469;27;89971;-69
2022/04/12 03:32:36;;;;;;;3.47;2.13;;;20.60;38.80;;;;;;5040063;28;90049;-70
2022/04/12 03:35:04;;;;;;;4.33;2.73;;;20.60;38.80;;;;;;5041594;27;88466;-69
2022/04/12 03:37:32;;;;;;;5.40;3.23;;;20.60;38.80;;;;;;5040098;28;90756;-70
2022/04/12 03:40:00;;;;;;;3.33;2.47;;;20.60;38.80;;;;;;5037705;28;89182;-70
2022/04/12 03:42:30;;;;;;;5.50;3.10;;;20.60;38.90;;;;;;5041059;28;89172;-69
2022/04/12 03:44:57;;;;;;;2.93;2.43;;;20.60;38.90;;;;;;5041593;28;88538;-70
2022/04/12 03:47:25;;;;;;;4.33;2.40;;;20.60;38.90;;;;;;5040312;27;90596;-70
2022/04/12 03:49:53;;;;;;;6.97;2.77;;;20.60;38.90;;;;;;5041307;28;90065;-70
2022/04/12 03:52:21;;;;;;;3.33;2.33;;;20.60;38.90;;;;;;5040190;27;90460;-70
2022/04/12 03:54:49;;;;;;;5.37;2.80;;;20.60;38.90;;;;;;5040244;27;88514;-70
2022/04/12 03:57:18;;;;;;;3.93;2.50;;;20.60;38.90;;;;;;5041027;28;90639;-70
2022/04/12 03:59:47;;;;;;;2.87;2.17;;;20.60;38.90;;;;;;5040729;28;88819;-71
2022/04/12 04:02:16;;;;;;;3.10;2.70;;;20.60;38.90;;;;;;5040549;27;88987;-70
2022/04/12 04:04:44;;;;;;;2.50;2.03;;;20.60;38.80;;;;;;5041248;27;88463;-70
2022/04/12 04:07:12;;;;;;;3.73;2.37;;;20.60;38.90;;;;;;5039614;28;90262;-71
2022/04/12 04:09:40;;;;;;;3.23;2.20;;;20.60;38.90;;;;;;5040190;28;89261;-71
2022/04/12 04:12:09;;;;;;;2.87;2.30;;;20.60;38.90;;;;;;5039342;28;89873;-71
2022/04/12 04:14:39;;;;;;;4.10;2.27;;;20.60;38.90;;;;;;5041186;28;88381;-71
2022/04/12 04:17:08;;;;;;;5.07;2.50;;;20.60;38.90;;;;;;5038396;27;89832;-70
2022/04/12 04:19:36;;;;;;;3.80;2.50;;;20.60;38.90;;;;;;5039764;28;90201;-71
2022/04/12 04:22:05;;;;;;;3.20;2.00;;;20.60;38.90;;;;;;5040321;28;88620;-71
2022/04/12 04:24:35;;;;;;;2.63;2.00;;;20.60;38.90;;;;;;5021056;28;88398;-71
2022/04/12 04:27:05;;;;;;;3.07;2.37;;;20.60;38.90;;;;;;5039316;28;89309;-70
2022/04/12 04:29:35;;;;;;;5.10;2.37;;;20.60;38.90;;;;;;5039222;28;92093;-70
2022/04/12 04:32:04;;;;;;;3.17;2.20;;;20.60;38.90;;;;;;5039314;28;88804;-71
2022/04/12 04:34:33;;;;;;;4.47;2.23;;;20.50;38.90;;;;;;5040587;27;88371;-70
2022/04/12 04:37:01;;;;;;;3.17;2.23;;;20.60;39.00;;;;;;5038403;28;90831;-70
2022/04/12 04:39:29;;;;;;;2.47;2.00;;;20.60;39.00;;;;;;5040049;28;90354;-70
2022/04/12 04:41:57;;;;;;;3.30;2.40;;;20.60;39.00;;;;;;5039054;27;88790;-70
2022/04/12 04:44:25;;;;;;;5.50;1.97;;;20.50;38.90;;;;;;5036641;28;88381;-70
2022/04/12 04:46:53;;;;;;;3.10;2.10;;;20.50;38.90;;;;;;5036573;28;90693;-70
2022/04/12 04:49:21;;;;;;;2.47;1.93;;;20.60;39.00;;;;;;5036693;28;90458;-70
2022/04/12 04:51:51;;;;;;;4.40;1.77;;;20.50;38.90;;;;;;5039894;28;88830;-70
2022/04/12 04:54:19;;;;;;;2.33;1.77;;;20.50;38.90;;;;;;5038041;27;88516;-70
2022/04/12 04:56:47;;;;;;;2.40;2.00;;;20.50;38.90;;;;;;5040810;27;88899;-64
2022/04/12 04:59:18;;;;;;;2.97;1.97;;;20.50;38.90;;;;;;5041112;27;92525;-64
2022/04/12 05:01:46;;;;;;;2.37;1.87;;;20.50;39.00;;;;;;5036177;27;89440;-69
2022/04/12 05:04:14;;;;;;;4.63;1.70;;;20.50;39.10;;;;;;5047318;27;89176;-63
2022/04/12 05:06:42;;;;;;;2.83;1.97;;;20.50;39.20;;;;;;5039273;27;90839;-62
2022/04/12 05:09:11;;;;;;;3.93;2.00;;;20.50;39.30;;;;;;5043924;27;88916;-63
2022/04/12 05:11:39;;;;;;;4.40;2.37;;;20.50;39.30;;;;;;5039804;27;89432;-65
2022/04/12 05:14:07;;;;;;;2.57;1.80;;;20.60;39.60;;;;;;5038890;27;88967;-64
2022/04/12 05:16:35;;;;;;;2.73;1.73;;;20.60;39.80;;;;;;5035734;27;88890;-67
2022/04/12 05:19:03;;;;;;;3.13;1.67;;;20.70;39.90;;;;;;5037680;27;89960;-67
2022/04/12 05:21:31;;;;;;;6.70;2.07;;;20.70;40.10;;;;;;5039559;27;88885;-66
2022/04/12 05:23:59;;;;;;;5.63;3.77;;;20.80;40.40;;;;;;5035540;28;88597;-70
2022/04/12 05:26:28;;;;;;;14.37;4.53;;;20.80;40.60;;;;;;5037794;28;91005;-67
2022/04/12 05:28:56;;;;;;;14.37;4.27;;;20.90;40.90;;;;;;5038757;28;90482;-69
2022/04/12 05:31:24;;;;;;;7.17;4.27;;;21.00;41.10;;;;;;5037678;28;89052;-69
2022/04/12 05:33:59;;;;;;;10.37;4.30;;;21.10;41.40;;;;;;5038188;28;88502;-69
2022/04/12 05:36:29;;;;;;;8.13;3.80;;;21.20;41.50;;;;;;5039670;28;93432;-67
2022/04/12 05:38:57;;;;;;;8.43;3.00;;;21.20;41.60;;;;;;5040102;27;89599;-67
2022/04/12 05:41:25;;;;;;;5.40;2.90;;;21.20;41.60;;;;;;5037433;28;88879;-68
2022/04/12 05:43:55;;;;;;;5.73;3.07;;;21.20;41.70;;;;;;5037188;27;88685;-70
2022/04/12 05:46:23;;;;;;;4.23;2.33;;;21.30;41.70;;;;;;5037984;28;89316;-71
2022/04/12 05:48:51;;;;;;;5.20;2.47;;;21.30;41.70;;;;;;5034873;28;88999;-71
2022/04/12 05:51:19;;;;;;;3.27;2.23;;;21.30;41.60;;;;;;5039109;28;89184;-72
2022/04/12 05:53:47;;;;;;;5.07;2.40;;;21.30;41.50;;;;;;5032665;28;88531;-72
2022/04/12 05:56:15;;;;;;;6.20;2.10;;;21.30;41.50;;;;;;5018650;28;90073;-72
2022/04/12 05:58:43;;;;;;;2.43;1.50;;;21.30;41.40;;;;;;5022113;28;90019;-71
2022/04/12 06:01:12;;;;;;;3.87;2.23;;;21.30;41.20;;;;;;5037913;28;88377;-71
2022/04/12 06:03:40;;;;;;;8.10;2.47;;;21.30;41.80;;;;;;5023053;28;88342;-70
2022/04/12 06:06:09;;;;;;;5.60;2.17;;;21.30;41.10;;;;;;5018982;28;90603;-68
2022/04/12 06:08:37;;;;;;;5.20;2.20;;;21.30;41.10;;;;;;5018877;28;90149;-71
2022/04/12 06:11:05;;;;;;;10.93;2.20;;;21.40;41.40;;;;;;5029776;28;89360;-69
2022/04/12 06:13:34;;;;;;;2.93;1.70;;;21.40;41.40;;;;;;5028262;28;88520;-71
2022/04/12 06:16:02;;;;;;;5.07;2.07;;;21.50;41.50;;;;;;5037764;28;90647;-69
2022/04/12 06:18:31;;;;;;;5.57;1.87;;;21.50;41.40;;;;;;5041242;28;89966;-69
2022/04/12 06:20:59;;;;;;;1.53;1.43;;;21.50;41.30;;;;;;5042307;28;88335;-70
2022/04/12 06:23:34;;;;;;;6.53;1.57;;;21.50;41.20;;;;;;5042044;28;88575;-70
2022/04/12 06:26:02;;;;;;;4.10;1.97;;;21.50;41.10;;;;;;5042659;28;90134;-69
2022/04/12 06:28:30;;;;;;;3.63;1.50;;;21.40;41.00;;;;;;5042596;28;90307;-69
2022/04/12 06:30:59;;;;;;;5.83;2.00;;;21.40;40.80;;;;;;5032683;28;88883;-69
2022/04/12 06:33:28;;;;;;;2.70;1.30;;;21.40;40.70;;;;;;5022011;28;88459;-69
2022/04/12 06:35:57;;;;;;;3.13;1.63;;;21.40;40.70;;;;;;5021608;28;90357;-70
2022/04/12 06:38:32;;;;;;;1.80;1.10;;;21.40;40.70;;;;;;5035493;27;90316;-69
2022/04/12 06:41:00;;;;;;;2.17;1.30;;;21.40;40.60;;;;;;5041918;28;89830;-69
2022/04/12 06:43:28;;;;;;;2.43;1.20;;;21.30;40.60;;;;;;5042383;28;88580;-69
2022/04/12 06:45:56;;;;;;;2.93;1.20;;;21.30;40.50;;;;;;5041987;27;88436;-69
2022/04/12 06:48:24;;;;;;;2.20;1.40;;;21.30;40.50;;;;;;5042093;28;89475;-69
2022/04/12 06:50:53;;;;;;;4.40;1.97;;;21.30;40.50;;;;;;5040991;28;88860;-70
2022/04/12 06:53:23;;;;;;;3.27;1.00;;;21.30;40.40;;;;;;5041641;28;88447;-67
2022/04/12 06:55:51;;;;;;;3.17;1.57;;;21.30;40.30;;;;;;5040264;28;90682;-69
2022/04/12 06:58:19;;;;;;;2.60;1.40;;;21.30;40.30;;;;;;5042186;28;89471;-68
2022/04/12 07:00:47;;;;;;;7.70;1.90;;;21.30;40.30;;;;;;5041853;28;88936;-68
2022/04/12 07:03:15;;;;;;;2.57;1.10;;;21.30;40.20;;;;;;5035338;28;88535;-68
2022/04/12 07:05:45;;;;;;;2.63;1.20;;;21.30;40.10;;;;;;5021192;28;89501;-68
2022/04/12 07:08:14;;;;;;;1.53;1.20;;;21.30;40.00;;;;;;5021411;28;90074;-68
2022/04/12 07:10:48;;;;;;;2.33;1.37;;;21.30;40.00;;;;;;5021489;28;88403;-68
2022/04/12 07:13:17;;;;;;;3.00;1.93;;;21.30;39.80;;;;;;5021992;28;88348;-68
2022/04/12 07:15:46;;;;;;;1.47;1.10;;;21.30;39.70;;;;;;5021479;28;90482;-68
2022/04/12 07:18:14;;;;;;;2.27;1.20;;;21.30;39.60;;;;;;5020856;28;90337;-67
2022/04/12 07:20:42;;;;;;;2.73;1.30;;;21.30;39.60;;;;;;5033330;28;88537;-67
2022/04/12 07:23:10;;;;;;;3.67;0.93;;;21.30;39.50;;;;;;5040487;28;88193;-67
2022/04/12 07:25:38;;;;;;;6.33;1.23;;;21.30;39.40;;;;;;5041358;28;89322;-69
2022/04/12 07:28:08;;;;;;;1.50;1.13;;;21.30;39.40;;;;;;5041079;27;88980;-69
2022/04/12 07:30:36;;;;;;;1.27;1.10;;;21.30;39.40;;;;;;5041517;27;90005;-69
2022/04/12 07:33:19;;;;;;;1.07;0.90;;;21.30;39.30;;;;;;5030620;28;88554;-69
2022/04/12 07:35:47;;;;;;;2.50;1.23;;;21.30;39.30;;;;;;5021018;28;90647;-69
2022/04/12 07:38:15;;;;;;;1.70;1.30;;;21.20;39.20;;;;;;5021251;28;90052;-69
2022/04/12 07:40:43;;;;;;;2.50;1.47;;;21.20;39.20;;;;;;5054314;27;91720;-69
2022/04/12 07:43:13;;;;;;;1.13;1.03;;;21.20;39.20;;;;;;5041672;28;88518;-69
2022/04/12 07:45:41;;;;;;;2.13;1.30;;;21.20;39.20;;;;;;5041268;27;90824;-69
2022/04/12 07:48:10;;;;;;;2.43;1.60;;;21.20;39.20;;;;;;5040505;28;90479;-68
2022/04/12 07:50:38;;;;;;;2.23;1.17;;;21.20;39.10;;;;;;5041197;28;88410;-69
2022/04/12 07:53:06;;;;;;;1.37;1.27;;;21.20;39.10;;;;;;5041303;28;88428;-69
2022/04/12 07:55:34;;;;;;;1.07;0.97;;;21.20;39.10;;;;;;5040418;27;90889;-68
2022/04/12 07:58:02;;;;;;;1.23;1.13;;;21.20;39.00;;;;;;5040748;28;89677;-69
2022/04/12 08:00:31;;;;;;;1.60;1.00;;;21.20;39.00;;;;;;5039916;27;88554;-68
2022/04/12 08:02:59;;;;;;;2.67;1.40;;;21.20;39.00;;;;;;5041237;28;88460;-68
2022/04/12 08:05:27;;;;;;;0.93;0.90;;;21.20;39.00;;;;;;5040865;27;90551;-69
2022/04/12 08:07:55;;;;;;;2.77;1.63;;;21.20;38.90;;;;;;5040766;28;90194;-68
2022/04/12 08:10:24;;;;;;;2.73;1.20;;;21.20;39.00;;;;;;5041280;28;88424;-69
2022/04/12 08:12:52;;;;;;;4.20;1.27;;;21.20;38.90;;;;;;5041038;28;89315;-69
2022/04/12 08:15:20;;;;;;;5.20;1.23;;;21.20;38.90;;;;;;5040551;27;89091;-69
2022/04/12 08:17:50;;;;;;;3.33;1.00;;;21.20;39.50;;;;;;5040803;28;89497;-69
2022/04/12 08:20:18;;;;;;;2.77;1.07;;;21.20;38.90;;;;;;5040296;28;89834;-68
2022/04/12 08:22:46;;;;;;;1.53;1.07;;;21.20;38.90;;;;;;5040959;28;88693;-69
2022/04/12 08:25:17;;;;;;;2.20;1.40;;;21.20;38.90;;;;;;5039963;27;89887;-69
2022/04/12 08:27:45;;;;;;;1.60;1.20;;;21.20;38.90;;;;;;5040465;28;89671;-69
2022/04/12 08:30:15;;;;;;;2.50;1.30;;;21.20;38.80;;;;;;5040349;28;88523;-68
2022/04/12 08:32:43;;;;;;;2.47;1.07;;;21.20;38.90;;;;;;5041452;28;88350;-68
2022/04/12 08:35:13;;;;;;;3.53;1.30;;;21.20;38.80;;;;;;5040472;27;89573;-68
2022/04/12 08:37:41;;;;;;;1.73;1.40;;;21.20;38.80;;;;;;5040439;28;90044;-68
2022/04/12 08:40:11;;;;;;;3.37;1.47;;;21.20;38.90;;;;;;5038503;28;91663;-68
2022/04/12 08:42:40;;;;;;;1.50;1.20;;;21.20;38.90;;;;;;5039747;27;88430;-69
2022/04/12 08:45:09;;;;;;;3.57;1.30;;;21.10;38.80;;;;;;5040338;28;93390;-68
2022/04/12 08:47:37;;;;;;;1.60;1.50;;;21.10;38.90;;;;;;5040188;27;89581;-69
2022/04/12 08:50:06;;;;;;;2.17;1.40;;;21.20;39.60;;;;;;5039688;28;88820;-70
2022/04/12 08:52:36;;;;;;;2.90;1.23;;;21.20;39.00;;;;;;5040276;28;88434;-69
2022/04/12 08:55:05;;;;;;;1.90;1.70;;;21.20;39.10;;;;;;5038612;28;91081;-69
2022/04/12 08:57:33;;;;;;;1.30;1.20;;;21.20;39.70;;;;;;5038583;28;88974;-67
2022/04/12 09:00:01;;;;;;;2.13;1.80;;;21.20;39.20;;;;;;5039185;27;90113;-68
2022/04/12 09:02:29;;;;;;;2.77;1.90;;;21.30;39.40;;;;;;5039923;28;88511;-68
2022/04/12 09:04:57;;;;;;;8.33;2.43;;;21.40;39.70;;;;;;5039562;28;91556;-68
2022/04/12 09:07:26;;;;;;;5.43;2.03;;;21.50;40.70;;;;;;5039073;28;91225;-68
2022/04/12 09:10:04;;;;;;;2.27;1.37;;;21.50;40.20;;;;;;5039117;28;88484;-67
2022/04/12 09:12:32;;;;;;;1.40;1.23;;;21.60;40.50;;;;;;5037147;28;88577;-67
2022/04/12 09:15:00;;;;;;;2.27;1.93;;;21.60;40.50;;;;;;5039827;28;90149;-67
2022/04/12 09:17:29;;;;;;;4.50;1.50;;;21.60;40.40;;;;;;5039123;28;89971;-67
2022/04/12 09:19:57;;;;;;;4.27;1.50;;;21.50;40.20;;;;;;5039402;28;88278;-67
2022/04/12 09:22:26;;;;;;;2.47;1.77;;;21.40;40.10;;;;;;5039854;28;88476;-67
2022/04/12 09:24:56;;;;;;;2.33;1.80;;;21.30;40.80;;;;;;5039054;28;91761;-67
2022/04/12 09:27:25;;;;;;;3.77;1.40;;;21.30;40.00;;;;;;5039625;28;89237;-67
2022/04/12 09:29:54;;;;;;;2.03;1.17;;;21.30;40.00;;;;;;5039226;28;88937;-67
2022/04/12 09:32:22;;;;;;;1.40;1.30;;;21.30;40.00;;;;;;5038678;28;88503;-67
2022/04/12 09:34:51;;;;;;;1.50;1.30;;;21.30;39.90;;;;;;5038219;28;90864;-67
2022/04/12 09:37:24;;;;;;;2.87;1.60;;;21.30;39.90;;;;;;5039580;28;90018;-67
2022/04/12 09:40:07;;;;;;;2.07;1.30;;;21.30;39.90;;;;;;5038696;28;88780;-67
2022/04/12 09:42:42;;;;;;;5.40;1.20;;;21.30;39.80;;;;;;5037616;27;89071;-65
2022/04/12 09:45:11;;;;;;;2.30;1.57;;;21.20;39.80;;;;;;5038686;28;90704;-65
2022/04/12 09:47:40;;;;;;;2.63;1.57;;;21.20;39.80;;;;;;5038014;27;89050;-65
2022/04/12 09:50:29;;;;;;;4.07;1.60;;;21.20;39.70;;;;;;5038506;28;88295;-66
2022/04/12 09:52:58;;;;;;;2.77;1.70;;;21.20;39.70;;;;;;5042545;27;88474;-65
2022/04/12 09:55:37;;;;;;;2.53;1.37;;;21.20;39.70;;;;;;5025217;28;90806;-65
2022/04/12 09:58:12;;;;;;;3.07;1.53;;;21.20;39.60;;;;;;5036336;28;90109;-65
2022/04/12 10:00:41;;;;;;;2.20;1.30;;;21.20;39.60;;;;;;5043176;27;89156;-66
2022/04/12 10:03:11;;;;;;;2.13;1.37;;;21.20;39.60;;;;;;5042771;27;88439;-65
2022/04/12 10:05:39;;;;;;;2.00;1.27;;;21.20;39.60;;;;;;5042588;28;93267;-65
2022/04/12 10:08:10;;;;;;;3.03;1.27;;;21.20;39.60;;;;;;5042148;28;89635;-65
2022/04/12 10:10:40;;;;;;;1.73;1.20;;;21.20;39.60;;;;;;5042472;28;91936;-66
2022/04/12 10:13:08;;;;;;;4.17;1.43;;;21.20;39.50;;;;;;5042122;28;88486;-66
2022/04/12 10:15:37;;;;;;;2.07;1.60;;;21.20;39.50;;;;;;5042226;27;90574;-65
2022/04/12 10:18:05;;;;;;;3.30;1.77;;;21.10;39.40;;;;;;5041387;28;90167;-65
2022/04/12 10:20:33;;;;;;;6.30;1.60;;;21.10;39.40;;;;;;5041873;28;88338;-66
2022/04/12 10:23:01;;;;;;;2.00;1.60;;;21.10;39.40;;;;;;5041976;28;88499;-65
2022/04/12 10:25:29;;;;;;;1.97;1.30;;;21.10;39.50;;;;;;5042424;28;90668;-65
2022/04/12 10:27:59;;;;;;;2.03;1.50;;;21.10;39.40;;;;;;5042349;27;89191;-66
2022/04/12 10:30:29;;;;;;;5.23;1.50;;;21.20;39.50;;;;;;5040847;27;88875;-65
2022/04/12 10:33:01;;;;;;;1.63;1.43;;;21.20;39.50;;;;;;5040147;28;88591;-65
2022/04/12 10:35:29;;;;;;;2.03;1.60;;;21.20;39.50;;;;;;5039959;27;90602;-66
2022/04/12 10:37:57;;;;;;;1.77;1.30;;;21.20;39.50;;;;;;5042103;28;90233;-66
2022/04/12 10:40:46;;;;;;;2.10;1.23;;;21.20;39.50;;;;;;5041981;28;89194;-66
2022/04/12 10:43:16;;;;;;;1.50;1.40;;;21.20;39.50;;;;;;5042387;28;88575;-67
2022/04/12 10:45:46;;;;;;;1.63;1.20;;;21.20;39.70;;;;;;5042110;28;90841;-66
2022/04/12 10:48:19;;;;;;;3.23;1.50;;;21.30;39.80;;;;;;5041873;28;89607;-66
2022/04/12 10:50:48;;;;;;;1.53;1.43;;;21.30;39.90;;;;;;5040822;28;89759;-67
2022/04/12 10:53:16;;;;;;;2.43;1.40;;;21.30;40.00;;;;;;5042567;28;88583;-67
2022/04/12 10:55:44;;;;;;;2.67;1.27;;;21.30;40.00;;;;;;5042214;28;91569;-67
2022/04/12 10:58:14;;;;;;;1.30;1.20;;;21.30;40.10;;;;;;5041514;28;90611;-67
2022/04/12 11:00:43;;;;;;;2.13;1.70;;;21.30;40.10;;;;;;5042001;28;88869;-67
2022/04/12 11:03:12;;;;;;;2.53;1.83;;;21.30;40.10;;;;;;5040538;28;88456;-66
2022/04/12 11:06:05;;;;;;;1.63;1.37;;;21.20;40.10;;;;;;5041900;28;90641;-67
2022/04/12 11:08:50;;;;;;;2.63;1.50;;;21.20;40.10;;;;;;5041122;27;89428;-67
2022/04/12 11:11:20;;;;;;;2.23;1.93;;;21.20;40.10;;;;;;5042120;28;91253;-67
2022/04/12 11:13:52;;;;;;;3.37;1.17;;;21.20;40.20;;;;;;5041674;28;88456;-67
2022/04/12 11:16:25;;;;;;;1.80;1.53;;;21.30;40.30;;;;;;5041724;28;90963;-67
2022/04/12 11:18:53;;;;;;;1.57;1.40;;;21.30;40.40;;;;;;5041620;27;88342;-65
2022/04/12 11:21:22;;;;;;;1.70;1.30;;;21.40;40.60;;;;;;5039433;27;88473;-65
2022/04/12 11:23:51;;;;;;;2.30;1.13;;;21.40;40.60;;;;;;5041943;28;88359;-65
2022/04/12 11:26:35;;;;;;;1.07;0.93;;;21.50;40.70;;;;;;5041242;28;91415;-65
2022/04/12 11:29:07;;;;;;;2.13;1.20;;;21.60;40.80;;;;;;5040643;28;90405;-65
2022/04/12 11:31:39;;;;;;;1.67;1.13;;;21.70;40.90;;;;;;5040816;28;89200;-66
2022/04/12 11:34:07;;;;;;;1.53;1.00;;;21.70;40.90;;;;;;5041681;28;88327;-65
2022/04/12 11:36:35;;;;;;;1.73;1.07;;;21.80;41.70;;;;;;5042235;28;90049;-66
2022/04/12 11:39:03;;;;;;;1.03;0.90;;;21.80;41.10;;;;;;5040551;27;89559;-66
2022/04/12 11:41:31;;;;;;;0.77;0.67;;;21.90;41.20;;;;;;5040545;28;89252;-66
2022/04/12 11:44:00;;;;;;;2.30;1.00;;;21.90;41.20;;;;;;5040829;28;89660;-67
2022/04/12 11:46:31;;;;;;;2.57;1.10;;;21.90;41.30;;;;;;5026863;28;90734;-66
2022/04/12 11:49:06;;;;;;;2.17;1.10;;;21.90;41.30;;;;;;5040663;28;90237;-66
2022/04/12 11:51:42;;;;;;;1.20;0.80;;;22.00;41.40;;;;;;5041085;27;88290;-66
2022/04/12 11:54:22;;;;;;;2.20;1.03;;;22.00;41.50;;;;;;5040637;28;88460;-66
2022/04/12 11:56:54;;;;;;;0.77;0.77;;;22.00;41.60;;;;;;5041063;28;90661;-66
2022/04/12 11:59:22;;;;;;;1.20;1.07;;;22.00;41.60;;;;;;5040735;28;90187;-66
2022/04/12 12:01:53;;;;;;;1.20;0.77;;;22.10;41.80;;;;;;5041562;28;88442;-66
2022/04/12 12:04:21;;;;;;;3.80;1.07;;;22.10;41.80;;;;;;5040016;27;88691;-66
2022/04/12 12:07:01;;;;;;;1.10;0.90;;;22.10;41.90;;;;;;5041066;28;92448;-66
2022/04/12 12:09:29;;;;;;;0.67;0.67;;;22.10;42.00;;;;;;5019830;28;89224;-66
2022/04/12 12:12:01;;;;;;;1.60;0.80;;;22.10;42.00;;;;;;5020629;28;91082;-66
2022/04/12 12:14:29;;;;;;;1.40;0.70;;;22.20;42.20;;;;;;5022934;28;88725;-66
2022/04/12 12:17:06;;;;;;;2.17;0.90;;;22.20;42.30;;;;;;5040623;28;90696;-66
2022/04/12 12:19:38;;;;;;;1.13;1.03;;;22.20;42.30;;;;;;5040875;28;89997;-66
2022/04/12 12:22:07;;;;;;;1.47;1.33;;;22.20;42.30;;;;;;5040613;28;88908;-67
2022/04/12 12:24:37;;;;;;;1.77;0.90;;;22.20;42.40;;;;;;5040396;28;88623;-66
2022/04/12 12:27:06;;;;;;;1.33;0.80;;;22.30;42.60;;;;;;5039927;28;89554;-66
2022/04/12 12:29:38;;;;;;;0.97;0.73;;;22.30;42.60;;;;;;5040504;28;89715;-66
2022/04/12 12:32:08;;;;;;;2.23;0.90;;;22.30;42.60;;;;;;5034864;28;88933;-69
2022/04/12 12:34:37;;;;;;;3.43;0.80;;;22.30;42.70;;;;;;5039506;28;88415;-69
2022/04/12 12:37:08;;;;;;;1.47;0.70;;;22.30;42.80;;;;;;5040027;28;89305;-70
2022/04/12 12:39:42;;;;;;;0.93;0.77;;;22.30;42.80;;;;;;5040476;27;88455;-69
2022/04/12 12:42:10;;;;;;;0.60;0.60;;;22.40;42.90;;;;;;5040515;28;88943;-69
2022/04/12 12:44:38;;;;;;;0.90;0.90;;;22.40;43.00;;;;;;5040506;28;88449;-69
2022/04/12 12:47:09;;;;;;;2.73;0.93;;;22.40;43.00;;;;;;5040311;28;90533;-69
2022/04/12 12:49:38;;;;;;;1.37;0.63;;;22.40;43.00;;;;;;5039995;27;89899;-69
2022/04/12 12:52:10;;;;;;;2.73;0.80;;;22.50;43.00;;;;;;5039740;27;88589;-69
2022/04/12 12:54:39;;;;;;;0.73;0.73;;;22.50;43.00;;;;;;5040060;27;88490;-69
2022/04/12 12:57:08;;;;;;;1.07;0.77;;;22.50;43.00;;;;;;5039919;27;91954;-69
2022/04/12 12:59:36;;;;;;;1.33;0.90;;;22.60;43.10;;;;;;5040368;27;90201;-70